Time,TemperatureF,DewpointF,PressureIn,WindDirection,WindDirectionDegrees,WindSpeedMPH,WindSpeedGustMPH,Humidity,HourlyPrecipIn,Conditions,Clouds,dailyrainin,SoftwareType,DateUTC
2013-02-15 00:01:00,40.0,-99.9,-100.00,NNW,343,5.0,10.0,-999,-99.99,,,-99.99,,2013-02-15 08:01:00,
2013-02-15 00:11:00,40.0,-99.9,-100.00,NNW,343,5.0,10.0,-999,-99.99,,,-99.99,,2013-02-15 08:11:00,
2013-02-15 01:02:00,40.0,-99.9,-100.00,North,350,8.0,14.0,-999,-99.99,,,-99.99,,2013-02-15 09:02:00,
2013-02-15 01:12:00,40.0,-99.9,-100.00,North,350,8.0,14.0,-999,-99.99,,,-99.99,,2013-02-15 09:12:00,
2013-02-15 02:02:00,40.0,-99.9,-100.00,NNW,341,7.0,12.0,-999,-99.99,,,-99.99,,2013-02-15 10:02:00,
2013-02-15 02:11:00,40.0,-99.9,-100.00,NNW,341,7.0,12.0,-999,-99.99,,,-99.99,,2013-02-15 10:11:00,
2013-02-15 03:01:00,37.0,-99.9,-100.00,North,350,7.0,14.0,-999,-99.99,,,-99.99,,2013-02-15 11:01:00,
2013-02-15 03:11:00,37.0,-99.9,-100.00,North,350,7.0,14.0,-999,-99.99,,,-99.99,,2013-02-15 11:11:00,
2013-02-15 04:02:00,36.0,-99.9,-100.00,North,349,5.0,10.0,-999,-99.99,,,-99.99,,2013-02-15 12:02:00,
2013-02-15 04:11:00,36.0,-99.9,-100.00,North,349,5.0,10.0,-999,-99.99,,,-99.99,,2013-02-15 12:11:00,
2013-02-15 05:02:00,35.0,-99.9,-100.00,NNW,344,7.0,12.0,-999,-99.99,,,-99.99,,2013-02-15 13:02:00,
2013-02-15 05:12:00,35.0,-99.9,-100.00,NNW,344,7.0,12.0,-999,-99.99,,,-99.99,,2013-02-15 13:12:00,
2013-02-15 06:01:00,34.0,-99.9,-100.00,North,351,5.0,8.0,-999,-99.99,,,-99.99,,2013-02-15 14:01:00,
2013-02-15 06:12:00,34.0,-99.9,-100.00,North,351,5.0,8.0,-999,-99.99,,,-99.99,,2013-02-15 14:12:00,
2013-02-15 07:02:00,34.0,-99.9,-100.00,North,360,7.0,16.0,-999,-99.99,,,-99.99,,2013-02-15 15:02:00,
2013-02-15 07:11:00,34.0,-99.9,-100.00,North,360,7.0,16.0,-999,-99.99,,,-99.99,,2013-02-15 15:11:00,
2013-02-15 08:02:00,34.0,-99.9,-100.00,North,350,7.0,14.0,-999,-99.99,,,-99.99,,2013-02-15 16:02:00,
2013-02-15 08:12:00,34.0,-99.9,-100.00,North,350,7.0,14.0,-999,-99.99,,,-99.99,,2013-02-15 16:12:00,
2013-02-15 09:01:00,36.0,-99.9,-100.00,NNW,347,9.0,16.0,-999,-99.99,,,-99.99,,2013-02-15 17:01:00,
2013-02-15 09:11:00,36.0,-99.9,-100.00,NNW,347,9.0,16.0,-999,-99.99,,,-99.99,,2013-02-15 17:11:00,
2013-02-15 10:02:00,39.0,-99.9,-100.00,North,356,9.0,16.0,-999,-99.99,,,-99.99,,2013-02-15 18:02:00,
2013-02-15 10:12:00,39.0,-99.9,-100.00,North,356,9.0,16.0,-999,-99.99,,,-99.99,,2013-02-15 18:12:00,
2013-02-15 11:02:00,44.0,-99.9,-100.00,North,7,7.0,13.0,-999,-99.99,,,-99.99,,2013-02-15 19:02:00,
2013-02-15 11:11:00,44.0,-99.9,-100.00,North,7,7.0,13.0,-999,-99.99,,,-99.99,,2013-02-15 19:11:00,
2013-02-15 12:02:00,47.0,-99.9,-100.00,North,10,7.0,14.0,-999,-99.99,,,-99.99,,2013-02-15 20:02:00,
2013-02-15 12:11:00,47.0,-99.9,-100.00,North,10,7.0,14.0,-999,-99.99,,,-99.99,,2013-02-15 20:11:00,
2013-02-15 13:00:00,52.0,-99.9,-100.00,North,9,6.0,12.0,-999,-99.99,,,-99.99,,2013-02-15 21:00:00,
2013-02-15 13:02:00,51.0,-99.9,-100.00,North,9,6.0,12.0,-999,-99.99,,,-99.99,,2013-02-15 21:02:00,
2013-02-15 13:11:00,51.0,-99.9,-100.00,North,9,6.0,12.0,-999,-99.99,,,-99.99,,2013-02-15 21:11:00,
2013-02-15 15:03:00,55.0,-99.9,-100.00,North,4,3.0,8.0,-999,-99.99,,,-99.99,,2013-02-15 23:03:00,
2013-02-15 15:11:00,55.0,-99.9,-100.00,North,4,3.0,8.0,-999,-99.99,,,-99.99,,2013-02-15 23:11:00,
2013-02-15 16:02:00,57.0,-99.9,-100.00,WNW,303,3.0,6.0,-999,-99.99,,,-99.99,,2013-02-16 00:02:00,
2013-02-15 16:12:00,57.0,-99.9,-100.00,WNW,303,3.0,6.0,-999,-99.99,,,-99.99,,2013-02-16 00:12:00,
2013-02-15 17:02:00,55.0,-99.9,-100.00,WSW,240,3.0,5.0,-999,-99.99,,,-99.99,,2013-02-16 01:02:00,
2013-02-15 17:11:00,55.0,-99.9,-100.00,WSW,240,3.0,5.0,-999,-99.99,,,-99.99,,2013-02-16 01:11:00,
2013-02-15 18:01:00,52.0,-99.9,-100.00,South,174,1.0,2.0,-999,-99.99,,,-99.99,,2013-02-16 02:01:00,
2013-02-15 18:11:00,52.0,-99.9,-100.00,South,174,1.0,2.0,-999,-99.99,,,-99.99,,2013-02-16 02:11:00,
2013-02-15 19:02:00,43.0,-99.9,-100.00,NNW,346,2.0,3.0,-999,-99.99,,,-99.99,,2013-02-16 03:02:00,
2013-02-15 19:11:00,43.0,-99.9,-100.00,NNW,346,2.0,3.0,-999,-99.99,,,-99.99,,2013-02-16 03:11:00,
2013-02-15 20:01:00,38.0,-99.9,-100.00,West,281,2.0,3.0,-999,-99.99,,,-99.99,,2013-02-16 04:01:00,
2013-02-15 20:11:00,38.0,-99.9,-100.00,West,281,2.0,3.0,-999,-99.99,,,-99.99,,2013-02-16 04:11:00,
2013-02-15 21:02:00,38.0,-99.9,-100.00,NNW,335,2.0,5.0,-999,-99.99,,,-99.99,,2013-02-16 05:02:00,
2013-02-15 21:12:00,38.0,-99.9,-100.00,NNW,335,2.0,5.0,-999,-99.99,,,-99.99,,2013-02-16 05:12:00,
2013-02-15 22:02:00,40.0,-99.9,-100.00,NNW,327,5.0,8.0,-999,-99.99,,,-99.99,,2013-02-16 06:02:00,
2013-02-15 22:11:00,40.0,-99.9,-100.00,NNW,327,5.0,8.0,-999,-99.99,,,-99.99,,2013-02-16 06:11:00,
2013-02-15 23:02:00,40.0,-99.9,-100.00,NW,320,7.0,10.0,-999,-99.99,,,-99.99,,2013-02-16 07:02:00,
2013-02-15 23:11:00,40.0,-99.9,-100.00,NW,320,7.0,10.0,-999,-99.99,,,-99.99,,2013-02-16 07:11:00,